createdAt,value
2023-04-13T00:00:06.191Z,5.52
2023-04-13T00:01:06.178Z,5.52
2023-04-13T00:02:06.344Z,5.52
2023-04-13T00:03:06.377Z,5.55
2023-04-13T00:04:06.334Z,5.55
2023-04-13T00:05:06.153Z,5.56
2023-04-13T00:06:06.122Z,5.56
2023-04-13T00:07:06.131Z,5.56
2023-04-13T00:08:06.101Z,5.56
2023-04-13T00:09:06.092Z,5.56
2023-04-13T00:10:06.077Z,5.56
2023-04-13T00:11:06.064Z,5.55
2023-04-13T00:12:06.074Z,5.56
2023-04-13T00:13:06.038Z,5.58
2023-04-13T00:14:06.031Z,5.58
2023-04-13T00:15:06.019Z,5.58
2023-04-13T00:16:06.014Z,5.55
2023-04-13T00:17:06.092Z,5.55
2023-04-13T00:18:06.024Z,5.56
2023-04-13T00:19:05.976Z,5.56
2023-04-13T00:20:05.979Z,5.56
2023-04-13T00:21:05.964Z,5.55
2023-04-13T00:22:05.976Z,5.55
2023-04-13T00:23:05.940Z,5.52
2023-04-13T00:24:05.932Z,5.52
2023-04-13T00:25:05.904Z,5.52
2023-04-13T00:26:05.903Z,5.51
2023-04-13T00:27:05.902Z,5.48
2023-04-13T00:28:05.880Z,5.49
2023-04-13T00:29:05.877Z,5.52
2023-04-13T00:30:05.860Z,5.51
2023-04-13T00:31:05.911Z,5.51
2023-04-13T00:32:05.851Z,5.49
2023-04-13T00:33:06.011Z,5.49
2023-04-13T00:34:05.808Z,5.51
2023-04-13T00:35:05.812Z,5.55
2023-04-13T00:36:05.785Z,5.51
2023-04-13T00:37:05.802Z,5.55
2023-04-13T00:38:05.770Z,5.58
2023-04-13T00:39:05.754Z,5.59
2023-04-13T00:40:05.762Z,5.59
2023-04-13T00:41:05.728Z,5.60
2023-04-13T00:42:05.752Z,5.62
2023-04-13T00:43:05.736Z,5.66
2023-04-13T00:44:05.700Z,5.65
2023-04-13T00:45:05.685Z,5.65
2023-04-13T00:46:05.727Z,5.67
2023-04-13T00:47:05.688Z,5.73
2023-04-13T00:48:05.747Z,5.77
2023-04-13T00:49:05.655Z,5.81
2023-04-13T00:50:05.639Z,5.85
2023-04-13T00:51:05.624Z,5.90
2023-04-13T00:52:05.646Z,5.95
2023-04-13T00:53:08.157Z,6.01
2023-04-13T00:54:05.597Z,6.03
2023-04-13T00:55:05.577Z,6.05
2023-04-13T00:56:05.570Z,6.11
2023-04-13T00:57:05.593Z,6.16
2023-04-13T00:58:05.545Z,6.20
2023-04-13T00:59:05.533Z,6.27
2023-04-13T01:00:05.531Z,6.30
2023-04-13T01:01:05.533Z,6.32
2023-04-13T01:02:05.731Z,6.36
2023-04-13T01:03:05.597Z,6.39
2023-04-13T01:04:05.561Z,6.42
2023-04-13T01:05:05.465Z,6.45
2023-04-13T01:06:05.468Z,6.48
2023-04-13T01:07:05.467Z,6.50
2023-04-13T01:08:05.437Z,6.51
2023-04-13T01:09:05.431Z,6.51
2023-04-13T01:10:05.430Z,6.46
2023-04-13T01:11:05.409Z,6.45
2023-04-13T01:12:05.419Z,6.48
2023-04-13T01:13:05.377Z,6.48
2023-04-13T01:14:05.366Z,6.46
2023-04-13T01:15:05.355Z,6.46
2023-04-13T01:16:05.383Z,6.48
2023-04-13T01:17:05.367Z,6.51
2023-04-13T01:18:05.338Z,6.50
2023-04-13T01:19:05.314Z,6.51
2023-04-13T01:20:05.315Z,6.51
2023-04-13T01:21:05.300Z,6.50
2023-04-13T01:22:05.311Z,6.50
2023-04-13T01:23:05.267Z,6.51
2023-04-13T01:24:05.274Z,6.53
2023-04-13T01:25:05.255Z,6.50
2023-04-13T01:26:05.235Z,6.50
2023-04-13T01:27:05.240Z,6.50
2023-04-13T01:28:05.215Z,6.54
2023-04-13T01:29:05.198Z,6.55
2023-04-13T01:30:05.235Z,6.57
2023-04-13T01:31:05.252Z,6.58
2023-04-13T01:32:05.184Z,6.63
2023-04-13T01:33:05.186Z,6.61
2023-04-13T01:34:05.158Z,6.61
2023-04-13T01:35:05.134Z,6.65
2023-04-13T01:36:05.133Z,6.65
2023-04-13T01:37:05.128Z,6.65
2023-04-13T01:38:05.107Z,6.64
2023-04-13T01:39:05.098Z,6.64
2023-04-13T01:40:05.112Z,6.65
2023-04-13T01:41:05.075Z,6.68
2023-04-13T01:42:05.062Z,6.68
2023-04-13T01:43:05.051Z,6.68
2023-04-13T01:44:05.031Z,6.68
2023-04-13T01:45:05.019Z,6.68
2023-04-13T01:46:05.010Z,6.65
2023-04-13T01:47:05.058Z,6.68
2023-04-13T01:48:05.093Z,6.69
2023-04-13T01:49:04.978Z,6.72
2023-04-13T01:50:04.964Z,6.72
2023-04-13T01:51:04.956Z,6.71
2023-04-13T01:52:04.959Z,6.65
2023-04-13T01:53:04.930Z,6.63
2023-04-13T01:54:04.955Z,6.58
2023-04-13T01:55:04.911Z,6.61
2023-04-13T01:56:04.911Z,6.64
2023-04-13T01:57:04.911Z,6.65
2023-04-13T01:58:04.865Z,6.68
2023-04-13T01:59:04.864Z,6.65
2023-04-13T02:00:04.863Z,6.69
2023-04-13T02:01:04.935Z,6.65
2023-04-13T02:02:04.884Z,6.64
2023-04-13T02:03:04.896Z,6.63
2023-04-13T02:04:05.081Z,6.63
2023-04-13T02:05:04.793Z,6.64
2023-04-13T02:06:04.791Z,6.65
2023-04-13T02:07:04.793Z,6.61
2023-04-13T02:08:04.759Z,6.61
2023-04-13T02:09:04.755Z,6.65
2023-04-13T02:10:04.732Z,6.64
2023-04-13T02:11:04.728Z,6.61
2023-04-13T02:12:04.743Z,6.60
2023-04-13T02:13:04.706Z,6.63
2023-04-13T02:14:04.689Z,6.65
2023-04-13T02:15:04.692Z,6.65
2023-04-13T02:16:04.705Z,6.64
2023-04-13T02:17:04.678Z,6.68
2023-04-13T02:18:04.712Z,6.68
2023-04-13T02:19:04.649Z,6.65
2023-04-13T02:20:04.636Z,6.68
2023-04-13T02:21:04.620Z,6.68
2023-04-13T02:22:04.624Z,6.72
2023-04-13T02:23:04.604Z,6.72
2023-04-13T02:24:04.588Z,6.72
2023-04-13T02:25:04.570Z,6.75
2023-04-13T02:26:04.578Z,6.75
2023-04-13T02:27:04.578Z,6.76
2023-04-13T02:28:04.536Z,6.71
2023-04-13T02:29:04.527Z,6.75
2023-04-13T02:30:04.519Z,6.76
2023-04-13T02:31:04.529Z,6.76
2023-04-13T02:32:04.602Z,6.81
2023-04-13T02:33:04.497Z,6.79
2023-04-13T02:34:04.473Z,6.79
2023-04-13T02:35:04.468Z,6.81
2023-04-13T02:36:04.471Z,6.81
2023-04-13T02:37:04.473Z,6.81
2023-04-13T02:38:04.426Z,6.83
2023-04-13T02:39:04.430Z,6.81
2023-04-13T02:40:04.407Z,6.83
2023-04-13T02:41:04.412Z,6.87
2023-04-13T02:42:04.402Z,6.89
2023-04-13T02:43:04.367Z,6.89
2023-04-13T02:44:04.367Z,6.90
2023-04-13T02:45:04.352Z,6.91
2023-04-13T02:46:04.411Z,6.91
2023-04-13T02:47:04.342Z,6.89
2023-04-13T02:48:04.310Z,6.87
2023-04-13T02:49:04.317Z,6.89
2023-04-13T02:50:04.317Z,6.90
2023-04-13T02:51:04.274Z,6.91
2023-04-13T02:52:04.288Z,6.94
2023-04-13T02:53:04.267Z,6.93
2023-04-13T02:54:04.250Z,6.94
2023-04-13T02:55:04.237Z,6.97
2023-04-13T02:56:04.216Z,6.99
2023-04-13T02:57:04.240Z,7.00
2023-04-13T02:58:04.192Z,7.01
2023-04-13T02:59:04.194Z,7.04
2023-04-13T03:00:04.177Z,7.07
2023-04-13T03:01:04.206Z,7.09
2023-04-13T03:02:04.216Z,7.08
2023-04-13T03:03:04.205Z,7.07
2023-04-13T03:04:04.148Z,7.08
2023-04-13T03:05:04.288Z,7.08
2023-04-13T03:06:04.145Z,7.01
2023-04-13T03:07:04.137Z,7.04
2023-04-13T03:08:04.121Z,7.04
2023-04-13T03:09:04.100Z,7.04
2023-04-13T03:10:04.092Z,7.05
2023-04-13T03:11:04.060Z,7.04
2023-04-13T03:12:04.094Z,6.99
2023-04-13T03:13:04.042Z,6.93
2023-04-13T03:14:04.026Z,6.96
2023-04-13T03:15:04.008Z,6.99
2023-04-13T03:16:03.994Z,7.01
2023-04-13T03:17:04.117Z,7.01
2023-04-13T03:18:04.034Z,6.99
2023-04-13T03:19:03.960Z,6.97
2023-04-13T03:20:03.956Z,6.99
2023-04-13T03:21:03.948Z,6.96
2023-04-13T03:22:03.949Z,6.96
2023-04-13T03:23:03.923Z,6.93
2023-04-13T03:24:03.911Z,6.93
2023-04-13T03:25:04.029Z,6.94
2023-04-13T03:26:03.881Z,6.96
2023-04-13T03:27:03.902Z,6.96
2023-04-13T03:28:03.871Z,6.97
2023-04-13T03:29:03.860Z,6.97
2023-04-13T03:30:03.853Z,6.97
2023-04-13T03:31:03.899Z,6.94
2023-04-13T03:32:03.865Z,6.96
2023-04-13T03:33:03.857Z,6.96
2023-04-13T03:34:03.795Z,6.96
2023-04-13T03:35:03.812Z,6.96
2023-04-13T03:36:03.770Z,6.94
2023-04-13T03:37:03.782Z,6.96
2023-04-13T03:38:03.756Z,6.97
2023-04-13T03:39:03.742Z,6.91
2023-04-13T03:40:03.740Z,6.96
2023-04-13T03:41:03.727Z,6.96
2023-04-13T03:42:03.740Z,6.94
2023-04-13T03:43:03.694Z,6.97
2023-04-13T03:44:03.689Z,6.97
2023-04-13T03:45:03.687Z,6.96
2023-04-13T03:46:03.684Z,6.99
2023-04-13T03:47:03.668Z,6.94
2023-04-13T03:48:03.743Z,6.94
2023-04-13T03:49:03.656Z,6.94
2023-04-13T03:50:03.622Z,6.94
2023-04-13T03:51:03.608Z,6.96
2023-04-13T03:52:03.616Z,6.91
2023-04-13T03:53:03.604Z,6.91
2023-04-13T03:54:03.594Z,6.96
2023-04-13T03:55:03.592Z,6.94
2023-04-13T03:56:03.552Z,6.96
2023-04-13T03:57:03.568Z,6.93
2023-04-13T03:58:03.534Z,6.91
2023-04-13T03:59:03.516Z,6.91
2023-04-13T04:00:03.518Z,6.93
2023-04-13T04:01:03.495Z,6.94
2023-04-13T04:02:03.527Z,6.94
2023-04-13T04:03:03.544Z,6.97
2023-04-13T04:04:03.909Z,6.93
2023-04-13T04:05:03.489Z,6.93
2023-04-13T04:06:03.447Z,6.96
2023-04-13T04:07:03.449Z,6.96
2023-04-13T04:08:03.424Z,6.96
2023-04-13T04:09:03.407Z,6.96
2023-04-13T04:10:03.405Z,6.97
2023-04-13T04:11:03.384Z,7.01
2023-04-13T04:12:03.416Z,7.00
2023-04-13T04:13:03.382Z,6.99
2023-04-13T04:14:03.354Z,6.99
2023-04-13T04:15:03.344Z,7.00
2023-04-13T04:16:03.343Z,6.96
2023-04-13T04:17:03.347Z,6.96
2023-04-13T04:18:03.329Z,6.96
2023-04-13T04:19:03.296Z,6.97
2023-04-13T04:20:03.287Z,6.97
2023-04-13T04:21:03.272Z,6.96
2023-04-13T04:22:03.280Z,6.99
2023-04-13T04:23:03.249Z,6.99
2023-04-13T04:24:03.244Z,6.99
2023-04-13T04:25:03.236Z,6.99
2023-04-13T04:26:03.220Z,7.00
2023-04-13T04:27:03.254Z,6.97
2023-04-13T04:28:03.208Z,6.99
2023-04-13T04:29:03.267Z,7.01
2023-04-13T04:30:03.171Z,7.00
2023-04-13T04:31:03.155Z,7.01
2023-04-13T04:32:03.320Z,6.99
2023-04-13T04:33:03.178Z,7.01
2023-04-13T04:34:03.132Z,7.04
2023-04-13T04:35:03.134Z,7.01
2023-04-13T04:36:03.113Z,7.00
2023-04-13T04:37:04.080Z,6.97
2023-04-13T04:38:03.090Z,7.01
2023-04-13T04:39:03.185Z,7.01
2023-04-13T04:40:03.073Z,7.04
2023-04-13T04:41:03.053Z,7.01
2023-04-13T04:42:03.107Z,7.01
2023-04-13T04:43:03.039Z,7.04
2023-04-13T04:44:03.040Z,7.05
2023-04-13T04:45:03.009Z,7.05
2023-04-13T04:46:03.067Z,7.00
2023-04-13T04:47:03.020Z,7.00
2023-04-13T04:48:03.009Z,6.99
2023-04-13T04:49:02.972Z,7.01
2023-04-13T04:50:02.949Z,7.04
2023-04-13T04:51:02.943Z,7.04
2023-04-13T04:52:03.064Z,7.04
2023-04-13T04:53:02.913Z,7.04
2023-04-13T04:54:02.908Z,7.04
2023-04-13T04:55:02.903Z,7.01
2023-04-13T04:56:02.891Z,7.05
2023-04-13T04:57:02.890Z,7.04
2023-04-13T04:58:02.861Z,7.04
2023-04-13T04:59:02.846Z,7.01
2023-04-13T05:00:02.847Z,7.01
2023-04-13T05:01:02.864Z,7.04
2023-04-13T05:02:02.886Z,7.07
2023-04-13T05:03:02.872Z,7.08
2023-04-13T05:04:02.799Z,7.07
2023-04-13T05:05:02.826Z,7.09
2023-04-13T05:06:02.769Z,7.09
2023-04-13T05:07:02.756Z,7.11
2023-04-13T05:08:02.784Z,7.12
2023-04-13T05:09:02.745Z,7.11
2023-04-13T05:10:02.733Z,7.14
2023-04-13T05:11:02.735Z,7.15
2023-04-13T05:12:02.706Z,7.15
2023-04-13T05:13:02.690Z,7.14
2023-04-13T05:14:02.727Z,7.16
2023-04-13T05:15:02.673Z,7.16
2023-04-13T05:16:02.670Z,7.18
2023-04-13T05:17:02.649Z,7.18
2023-04-13T05:18:02.695Z,7.16
2023-04-13T05:19:02.801Z,7.16
2023-04-13T05:20:02.626Z,7.16
2023-04-13T05:21:02.631Z,7.19
2023-04-13T05:22:02.600Z,7.21
2023-04-13T05:23:02.584Z,7.23
2023-04-13T05:24:02.588Z,7.15
2023-04-13T05:25:02.611Z,7.18
2023-04-13T05:26:02.565Z,7.18
2023-04-13T05:27:02.540Z,7.21
2023-04-13T05:28:02.532Z,7.23
2023-04-13T05:29:02.557Z,7.24
2023-04-13T05:30:02.553Z,7.23
2023-04-13T05:31:02.516Z,7.21
2023-04-13T05:32:02.644Z,7.23
2023-04-13T05:33:02.515Z,7.26
2023-04-13T05:34:02.468Z,7.24
2023-04-13T05:35:02.486Z,7.24
2023-04-13T05:36:02.467Z,7.23
2023-04-13T05:37:02.433Z,7.24
2023-04-13T05:38:02.426Z,7.26
2023-04-13T05:39:02.402Z,7.32
2023-04-13T05:40:02.443Z,7.30
2023-04-13T05:41:02.404Z,7.30
2023-04-13T05:42:02.383Z,7.33
2023-04-13T05:43:02.361Z,7.37
2023-04-13T05:44:02.350Z,7.39
2023-04-13T05:45:02.341Z,7.44
2023-04-13T05:46:02.430Z,7.45
2023-04-13T05:47:02.349Z,7.50
2023-04-13T05:48:02.380Z,7.60
2023-04-13T05:49:02.291Z,7.60
2023-04-13T05:50:02.345Z,7.71
2023-04-13T05:51:02.278Z,7.82
2023-04-13T05:52:02.277Z,7.85
2023-04-13T05:53:02.275Z,7.86
2023-04-13T05:54:02.261Z,7.84
2023-04-13T05:55:02.229Z,7.85
2023-04-13T05:56:02.292Z,7.88
2023-04-13T05:57:02.213Z,7.81
2023-04-13T05:58:02.223Z,7.74
2023-04-13T05:59:02.202Z,7.76
2023-04-13T06:00:02.174Z,7.66
2023-04-13T06:01:02.158Z,7.60
2023-04-13T06:02:02.451Z,7.62
2023-04-13T06:03:02.407Z,7.62
2023-04-13T06:04:02.266Z,7.60
2023-04-13T06:05:02.161Z,7.54
2023-04-13T06:06:02.156Z,7.51
2023-04-13T06:07:02.119Z,7.57
2023-04-13T06:08:02.092Z,7.63
2023-04-13T06:09:02.285Z,7.69
2023-04-13T06:10:02.210Z,7.70
2023-04-13T06:11:02.047Z,7.71
2023-04-13T06:12:02.058Z,7.73
2023-04-13T06:13:02.052Z,7.66
2023-04-13T06:14:02.040Z,7.66
2023-04-13T06:15:02.026Z,7.69
2023-04-13T06:16:01.994Z,7.70
2023-04-13T06:17:02.053Z,7.69
2023-04-13T06:18:02.045Z,7.71
2023-04-13T06:19:02.261Z,7.81
2023-04-13T06:20:01.958Z,7.94
2023-04-13T06:21:01.943Z,8.00
2023-04-13T06:22:01.972Z,8.10
2023-04-13T06:23:01.914Z,8.07
2023-04-13T06:24:01.909Z,8.12
2023-04-13T06:25:01.898Z,8.20
2023-04-13T06:26:04.341Z,8.20
2023-04-13T06:27:01.918Z,8.10
2023-04-13T06:28:01.932Z,8.18
2023-04-13T06:29:01.974Z,8.13
2023-04-13T06:30:01.896Z,8.09
2023-04-13T06:31:01.943Z,8.07
2023-04-13T06:32:01.834Z,8.10
2023-04-13T06:33:01.850Z,8.21
2023-04-13T06:34:01.874Z,8.24
2023-04-13T06:35:01.835Z,8.17
2023-04-13T06:36:01.791Z,8.21
2023-04-13T06:37:01.830Z,8.24
2023-04-13T06:38:01.753Z,8.27
2023-04-13T06:39:02.073Z,8.21
2023-04-13T06:40:01.754Z,8.25
2023-04-13T06:41:01.744Z,8.14
2023-04-13T06:42:01.737Z,8.20
2023-04-13T06:43:01.701Z,8.21
2023-04-13T06:44:01.692Z,8.22
2023-04-13T06:45:01.679Z,8.34
2023-04-13T06:46:01.849Z,8.45
2023-04-13T06:47:01.692Z,8.52
2023-04-13T06:48:01.738Z,8.47
2023-04-13T06:49:01.787Z,8.50
2023-04-13T06:50:01.621Z,8.49
2023-04-13T06:51:01.600Z,8.47
2023-04-13T06:52:01.671Z,8.32
2023-04-13T06:53:01.591Z,8.28
2023-04-13T06:54:01.576Z,8.25
2023-04-13T06:55:01.569Z,8.34
2023-04-13T06:56:01.566Z,8.39
2023-04-13T06:57:01.558Z,8.37
2023-04-13T06:58:01.543Z,8.42
2023-04-13T06:59:02.542Z,8.54
2023-04-13T07:00:01.513Z,8.45
2023-04-13T07:01:01.535Z,8.45
2023-04-13T07:02:01.628Z,8.49
2023-04-13T07:03:01.579Z,8.49
2023-04-13T07:04:01.485Z,8.58
2023-04-13T07:05:01.488Z,8.64
2023-04-13T07:06:01.441Z,8.70
2023-04-13T07:07:01.446Z,8.76
2023-04-13T07:08:01.428Z,8.82
2023-04-13T07:09:01.502Z,8.73
2023-04-13T07:10:01.406Z,8.79
2023-04-13T07:11:01.381Z,8.71
2023-04-13T07:12:01.433Z,8.82
2023-04-13T07:13:01.419Z,8.91
2023-04-13T07:14:01.354Z,9.01
2023-04-13T07:15:01.338Z,9.13
2023-04-13T07:16:01.369Z,9.23
2023-04-13T07:17:01.336Z,9.37
2023-04-13T07:18:01.379Z,9.42
2023-04-13T07:19:01.441Z,9.37
2023-04-13T07:20:01.294Z,9.15
2023-04-13T07:21:01.365Z,9.00
2023-04-13T07:22:01.279Z,9.06
2023-04-13T07:23:01.252Z,9.15
2023-04-13T07:24:01.242Z,9.13
2023-04-13T07:25:01.227Z,9.12
2023-04-13T07:26:01.226Z,9.23
2023-04-13T07:27:01.235Z,9.34
2023-04-13T07:28:01.198Z,9.35
2023-04-13T07:29:01.305Z,9.56
2023-04-13T07:30:01.196Z,9.62
2023-04-13T07:31:01.203Z,9.59
2023-04-13T07:32:01.298Z,9.58
2023-04-13T07:33:01.226Z,9.53
2023-04-13T07:34:01.134Z,9.42
2023-04-13T07:35:01.142Z,9.35
2023-04-13T07:36:01.116Z,9.38
2023-04-13T07:37:01.116Z,9.34
2023-04-13T07:38:01.087Z,9.49
2023-04-13T07:39:01.318Z,9.40
2023-04-13T07:40:01.061Z,9.48
2023-04-13T07:41:01.052Z,9.40
2023-04-13T07:42:01.055Z,9.31
2023-04-13T07:43:01.033Z,9.37
2023-04-13T07:44:01.019Z,9.58
2023-04-13T07:45:00.997Z,9.68
2023-04-13T07:46:00.992Z,9.77
2023-04-13T07:47:01.042Z,9.78
2023-04-13T07:48:01.000Z,9.83
2023-04-13T07:49:01.245Z,9.98
2023-04-13T07:50:00.955Z,9.91
2023-04-13T07:51:00.927Z,9.86
2023-04-13T07:52:00.943Z,9.68
2023-04-13T07:53:00.902Z,9.75
2023-04-13T07:54:00.909Z,9.91
2023-04-13T07:55:00.981Z,10.07
2023-04-13T07:56:00.878Z,9.96
2023-04-13T07:57:00.888Z,10.01
2023-04-13T07:58:00.868Z,10.09
2023-04-13T07:59:01.255Z,9.93
2023-04-13T08:00:00.826Z,10.01
2023-04-13T08:01:00.858Z,10.16
2023-04-13T08:02:00.894Z,10.17
2023-04-13T08:03:00.955Z,10.14
2023-04-13T08:04:00.930Z,10.02
2023-04-13T08:05:00.957Z,10.06
2023-04-13T08:06:00.765Z,10.04
2023-04-13T08:07:00.758Z,10.11
2023-04-13T08:08:00.767Z,10.14
2023-04-13T08:09:00.888Z,10.16
2023-04-13T08:10:00.722Z,10.24
2023-04-13T08:11:00.723Z,10.24
2023-04-13T08:12:00.708Z,10.06
2023-04-13T08:13:00.704Z,9.86
2023-04-13T08:14:00.745Z,9.83
2023-04-13T08:15:00.679Z,9.89
2023-04-13T08:16:00.692Z,9.86
2023-04-13T08:17:02.040Z,9.77
2023-04-13T08:18:00.688Z,9.80
2023-04-13T08:19:00.882Z,9.70
2023-04-13T08:20:00.620Z,9.70
2023-04-13T08:21:00.601Z,9.68
2023-04-13T08:22:00.590Z,9.71
2023-04-13T08:23:00.609Z,9.62
2023-04-13T08:24:00.573Z,9.48
2023-04-13T08:25:00.556Z,9.40
2023-04-13T08:26:00.544Z,9.31
2023-04-13T08:27:00.553Z,9.32
2023-04-13T08:28:00.547Z,9.41
2023-04-13T08:29:00.709Z,9.40
2023-04-13T08:30:00.582Z,9.37
2023-04-13T08:31:00.489Z,9.31
2023-04-13T08:32:00.491Z,9.32
2023-04-13T08:33:00.510Z,9.32
2023-04-13T08:34:00.456Z,9.26
2023-04-13T08:35:00.446Z,9.31
2023-04-13T08:36:00.432Z,9.32
2023-04-13T08:37:00.431Z,9.16
2023-04-13T08:38:00.412Z,9.03
2023-04-13T08:39:00.713Z,9.08
2023-04-13T08:40:00.420Z,9.00
2023-04-13T08:41:00.388Z,9.03
2023-04-13T08:42:00.372Z,9.16
2023-04-13T08:43:00.353Z,9.30
2023-04-13T08:44:00.688Z,9.26
2023-04-13T08:45:00.529Z,9.38
2023-04-13T08:46:00.353Z,9.42
2023-04-13T08:47:00.321Z,9.50
2023-04-13T08:48:00.395Z,9.45
2023-04-13T08:49:00.337Z,9.41
2023-04-13T08:50:00.344Z,9.34
2023-04-13T08:51:00.263Z,9.26
2023-04-13T08:52:00.255Z,9.34
2023-04-13T08:53:00.256Z,9.40
2023-04-13T08:54:00.220Z,9.37
2023-04-13T08:55:00.239Z,9.32
2023-04-13T08:56:00.204Z,9.20
2023-04-13T08:57:00.203Z,9.13
2023-04-13T08:58:00.178Z,9.08
2023-04-13T08:59:00.480Z,9.08
2023-04-13T09:00:00.220Z,9.19
2023-04-13T09:01:00.169Z,9.19
2023-04-13T09:02:00.254Z,9.20
2023-04-13T09:03:04.108Z,9.22
2023-04-13T09:04:00.351Z,9.24
2023-04-13T09:05:00.368Z,9.30
2023-04-13T09:06:00.200Z,9.38
2023-04-13T09:07:00.126Z,9.45
2023-04-13T09:08:00.091Z,9.53
2023-04-13T09:09:00.263Z,9.50
2023-04-13T09:10:00.075Z,9.53
2023-04-13T09:11:00.084Z,9.58
2023-04-13T09:12:00.031Z,9.38
2023-04-13T09:13:00.032Z,9.41
2023-04-13T09:14:00.331Z,9.38
2023-04-13T09:14:59.991Z,9.38
2023-04-13T09:16:00.006Z,9.50
2023-04-13T09:17:00.002Z,9.50
2023-04-13T09:18:00.007Z,9.67
2023-04-13T09:19:00.232Z,9.85
2023-04-13T09:19:59.935Z,9.88
2023-04-13T09:20:59.946Z,9.75
2023-04-13T09:21:59.938Z,9.85
2023-04-13T09:23:01.064Z,9.74
2023-04-13T09:23:59.897Z,9.67
2023-04-13T09:24:59.896Z,9.59
2023-04-13T09:25:59.881Z,9.62
2023-04-13T09:26:59.921Z,9.58
2023-04-13T09:27:59.855Z,9.62
2023-04-13T09:28:59.976Z,9.56
2023-04-13T09:29:59.842Z,9.60
2023-04-13T09:30:59.844Z,9.53
2023-04-13T09:31:59.824Z,9.41
2023-04-13T09:32:59.832Z,9.31
2023-04-13T09:33:59.971Z,9.37
2023-04-13T09:34:59.774Z,9.49
2023-04-13T09:35:59.771Z,9.60
2023-04-13T09:37:01.832Z,9.68
2023-04-13T09:37:59.752Z,9.58
2023-04-13T09:38:59.994Z,9.45
2023-04-13T09:39:59.719Z,9.59
2023-04-13T09:40:59.705Z,9.63
2023-04-13T09:41:59.722Z,9.75
2023-04-13T09:42:59.700Z,9.67
2023-04-13T09:43:59.678Z,9.58
2023-04-13T09:44:59.666Z,9.68
2023-04-13T09:45:59.734Z,9.70
2023-04-13T09:46:59.678Z,9.77
2023-04-13T09:47:59.666Z,9.86
2023-04-13T09:48:59.743Z,9.96
2023-04-13T09:49:59.609Z,10.13
2023-04-13T09:50:59.614Z,10.26
2023-04-13T09:51:59.581Z,10.29
2023-04-13T09:52:59.593Z,10.52
2023-04-13T09:53:59.557Z,10.65
2023-04-13T09:54:59.557Z,10.73
2023-04-13T09:55:59.544Z,10.84
2023-04-13T09:56:59.553Z,10.81
2023-04-13T09:57:59.532Z,10.49
2023-04-13T09:58:59.659Z,10.49
2023-04-13T09:59:59.491Z,10.49
2023-04-13T10:00:59.486Z,10.46
2023-04-13T10:01:59.586Z,10.54
2023-04-13T10:02:59.536Z,10.44
2023-04-13T10:03:59.613Z,10.54
2023-04-13T10:04:59.482Z,10.76
2023-04-13T10:06:00.667Z,10.87
2023-04-13T10:06:59.546Z,11.08
2023-04-13T10:07:59.414Z,11.36
2023-04-13T10:08:59.395Z,11.44
2023-04-13T10:09:59.381Z,11.38
2023-04-13T10:10:59.377Z,11.19
2023-04-13T10:11:59.361Z,11.12
2023-04-13T10:12:59.386Z,11.06
2023-04-13T10:13:59.557Z,11.27
2023-04-13T10:14:59.331Z,11.26
2023-04-13T10:16:00.511Z,11.33
2023-04-13T10:16:59.318Z,11.57
2023-04-13T10:17:59.419Z,11.70
2023-04-13T10:18:59.437Z,11.64
2023-04-13T10:19:59.268Z,11.90
2023-04-13T10:20:59.262Z,12.13
2023-04-13T10:21:59.256Z,12.19
2023-04-13T10:22:59.265Z,12.18
2023-04-13T10:23:59.444Z,12.26
2023-04-13T10:24:59.221Z,12.34
2023-04-13T10:25:59.202Z,12.41
2023-04-13T10:26:59.196Z,12.30
2023-04-13T10:27:59.206Z,12.13
2023-04-13T10:28:59.379Z,11.98
2023-04-13T10:29:59.169Z,12.07
2023-04-13T10:30:59.157Z,12.05
2023-04-13T10:31:59.206Z,12.05
2023-04-13T10:32:59.198Z,12.03
2023-04-13T10:33:59.213Z,11.82
2023-04-13T10:34:59.102Z,11.78
2023-04-13T10:35:59.088Z,11.87
2023-04-13T10:36:59.089Z,12.11
2023-04-13T10:37:59.082Z,12.30
2023-04-13T10:38:59.251Z,12.25
2023-04-13T10:39:59.041Z,12.16
2023-04-13T10:40:59.033Z,12.04
2023-04-13T10:41:59.017Z,12.05
2023-04-13T10:42:59.029Z,12.12
2023-04-13T10:43:59.271Z,12.26
2023-04-13T10:44:58.989Z,12.43
2023-04-13T10:45:58.973Z,12.29
2023-04-13T10:46:58.992Z,12.21
2023-04-13T10:47:59.095Z,11.97
2023-04-13T10:48:59.385Z,11.75
2023-04-13T10:49:58.934Z,11.75
2023-04-13T10:50:58.925Z,11.57
2023-04-13T10:51:58.926Z,11.53
2023-04-13T10:52:58.921Z,11.59
2023-04-13T10:53:58.884Z,11.66
2023-04-13T10:54:58.886Z,11.72
2023-04-13T10:55:58.860Z,11.72
2023-04-13T10:56:58.853Z,11.56
2023-04-13T10:57:58.854Z,11.28
2023-04-13T10:58:59.118Z,11.17
2023-04-13T10:59:59.684Z,11.33
2023-04-13T11:00:58.816Z,11.59
2023-04-13T11:01:58.863Z,11.64
2023-04-13T11:02:58.976Z,11.63
2023-04-13T11:04:05.335Z,11.62
2023-04-13T11:04:58.797Z,11.69
2023-04-13T11:05:58.772Z,11.82
2023-04-13T11:06:58.746Z,11.75
2023-04-13T11:07:58.746Z,11.67
2023-04-13T11:08:58.725Z,11.69
2023-04-13T11:10:58.726Z,11.38
2023-04-13T11:11:58.682Z,11.24
2023-04-13T11:12:58.700Z,11.19
2023-04-13T11:13:58.840Z,11.26
2023-04-13T11:14:58.658Z,11.16
2023-04-13T11:15:58.657Z,11.20
2023-04-13T11:16:58.944Z,11.27
2023-04-13T11:17:58.733Z,11.26
2023-04-13T11:18:58.885Z,11.27
2023-04-13T11:19:58.609Z,11.16
2023-04-13T11:20:58.611Z,11.13
2023-04-13T11:21:58.572Z,11.12
2023-04-13T11:22:58.587Z,11.11
2023-04-13T11:23:58.552Z,11.11
2023-04-13T11:24:58.542Z,11.06
2023-04-13T11:25:58.724Z,11.19
2023-04-13T11:26:58.535Z,10.99
2023-04-13T11:27:58.536Z,10.95
2023-04-13T11:28:58.650Z,10.87
2023-04-13T11:29:58.492Z,10.88
2023-04-13T11:30:58.480Z,10.93
2023-04-13T11:31:58.469Z,10.87
2023-04-13T11:32:58.601Z,11.01
2023-04-13T11:33:58.583Z,11.01
2023-04-13T11:34:58.447Z,11.16
2023-04-13T11:35:58.412Z,11.28
2023-04-13T11:36:58.412Z,11.33
2023-04-13T11:37:58.411Z,11.31
2023-04-13T11:38:58.594Z,11.27
2023-04-13T11:39:58.363Z,11.30
2023-04-13T11:41:08.170Z,11.48
2023-04-13T11:41:58.354Z,11.59
2023-04-13T11:42:58.370Z,11.66
2023-04-13T11:43:58.349Z,11.75
2023-04-13T11:44:58.325Z,11.82
2023-04-13T11:45:58.481Z,11.81
2023-04-13T11:46:58.287Z,11.79
2023-04-13T11:47:58.358Z,11.70
2023-04-13T11:48:58.516Z,11.54
2023-04-13T11:49:58.262Z,11.42
2023-04-13T11:50:58.258Z,11.42
2023-04-13T11:51:58.241Z,11.39
2023-04-13T11:52:58.272Z,11.39
2023-04-13T11:53:58.216Z,11.36
2023-04-13T11:55:00.636Z,11.27
2023-04-13T11:55:58.204Z,11.33
2023-04-13T11:56:58.192Z,11.42
2023-04-13T11:57:58.188Z,11.42
2023-04-13T11:58:58.480Z,11.56
2023-04-13T11:59:58.149Z,11.79
2023-04-13T12:01:02.606Z,12.05
2023-04-13T12:02:02.709Z,12.31
2023-04-13T12:03:02.387Z,12.49
2023-04-13T12:04:08.409Z,12.36
2023-04-13T12:04:58.303Z,12.19
2023-04-13T12:05:58.279Z,12.26
2023-04-13T12:06:58.382Z,12.43
2023-04-13T12:07:58.689Z,12.54
2023-04-13T12:09:59.487Z,12.31
2023-04-13T12:11:30.194Z,12.22
2023-04-13T12:12:20.511Z,12.33
2023-04-13T12:13:15.332Z,12.67
2023-04-13T12:14:07.147Z,12.79
2023-04-13T12:15:15.405Z,12.87
2023-04-13T12:16:08.671Z,12.91
2023-04-13T12:18:02.243Z,13.03
2023-04-13T12:18:58.945Z,13.19
2023-04-13T12:19:58.144Z,13.12
2023-04-13T12:20:57.943Z,12.80
2023-04-13T12:22:00.109Z,12.59
2023-04-13T12:23:05.864Z,12.59
2023-04-13T12:23:58.269Z,12.76
2023-04-13T12:24:59.391Z,12.81
2023-04-13T12:25:57.871Z,12.70
2023-04-13T12:27:57.849Z,12.56
2023-04-13T12:28:58.101Z,12.46
2023-04-13T12:29:57.809Z,12.49
2023-04-13T12:30:57.798Z,12.43
2023-04-13T12:31:57.902Z,12.41
2023-04-13T12:32:57.882Z,12.43
2023-04-13T12:33:58.007Z,12.56
2023-04-13T12:34:57.751Z,12.70
2023-04-13T12:35:57.747Z,12.71
2023-04-13T12:36:57.729Z,12.87
2023-04-13T12:37:57.749Z,13.06
2023-04-13T12:38:57.917Z,13.09
2023-04-13T12:39:57.698Z,13.19
2023-04-13T12:40:57.688Z,13.31
2023-04-13T12:41:57.687Z,13.39
2023-04-13T12:42:57.686Z,13.51
2023-04-13T12:43:57.661Z,13.41
2023-04-13T12:44:57.637Z,13.27
2023-04-13T12:45:57.631Z,13.14
2023-04-13T12:46:57.652Z,12.94
2023-04-13T12:47:57.672Z,12.94
2023-04-13T12:48:57.926Z,12.88
2023-04-13T12:49:57.587Z,12.91
2023-04-13T12:50:57.576Z,12.74
2023-04-13T12:51:57.646Z,12.54
2023-04-13T12:52:57.573Z,12.54
2023-04-13T12:53:57.545Z,12.56
2023-04-13T12:54:57.539Z,12.62
2023-04-13T12:55:57.518Z,12.56
2023-04-13T12:56:57.502Z,12.44
2023-04-13T12:57:57.522Z,12.33
2023-04-13T12:58:57.624Z,12.33
2023-04-13T12:59:57.485Z,12.30
2023-04-13T13:00:57.489Z,12.31
2023-04-13T13:01:57.478Z,12.29
2023-04-13T13:03:06.478Z,12.15
2023-04-13T13:03:57.529Z,12.12
2023-04-13T13:04:57.435Z,12.01
2023-04-13T13:05:57.438Z,11.79
2023-04-13T13:06:57.397Z,11.87
2023-04-13T13:07:57.408Z,11.90
2023-04-13T13:08:57.506Z,12.00
2023-04-13T13:09:57.367Z,12.19
2023-04-13T13:10:57.359Z,12.34
2023-04-13T13:11:57.363Z,12.26
2023-04-13T13:12:57.422Z,12.16
2023-04-13T13:13:57.317Z,11.90
2023-04-13T13:14:57.317Z,11.94